sensor_id;sensor_type;location;lat;lon;timestamp;temperature;humidity
19654;DHT22;9975;48.046;7.804;2023-01-24T01:57:08;2.70;99.90
19654;DHT22;9975;48.046;7.804;2023-01-24T01:59:39;2.70;99.90
19654;DHT22;9975;48.046;7.804;2023-01-24T02:02:07;2.90;99.90
19654;DHT22;9975;48.046;7.804;2023-01-24T02:04:36;2.90;99.90
19654;DHT22;9975;48.046;7.804;2023-01-24T02:09:45;2.90;99.90
19654;DHT22;9975;48.046;7.804;2023-01-24T02:12:26;2.90;99.90
19654;DHT22;9975;48.046;7.804;2023-01-24T02:14:55;2.90;99.90
19654;DHT22;9975;48.046;7.804;2023-01-24T02:17:51;2.90;99.90
19654;DHT22;9975;48.046;7.804;2023-01-24T02:20:26;2.90;99.90
19654;DHT22;9975;48.046;7.804;2023-01-24T02:28:49;3.00;99.90
19654;DHT22;9975;48.046;7.804;2023-01-24T02:31:17;3.00;99.90
19654;DHT22;9975;48.046;7.804;2023-01-24T02:33:42;3.00;99.90
19654;DHT22;9975;48.046;7.804;2023-01-24T02:36:19;3.00;99.90
19654;DHT22;9975;48.046;7.804;2023-01-24T02:38:50;2.90;99.90
19654;DHT22;9975;48.046;7.804;2023-01-24T02:41:28;3.00;99.90
19654;DHT22;9975;48.046;7.804;2023-01-24T02:44:00;3.00;99.90
19654;DHT22;9975;48.046;7.804;2023-01-24T02:46:29;3.00;99.90
19654;DHT22;9975;48.046;7.804;2023-01-24T02:48:55;3.00;99.90
19654;DHT22;9975;48.046;7.804;2023-01-24T02:51:21;2.90;99.90
19654;DHT22;9975;48.046;7.804;2023-01-24T02:54:05;3.00;99.90
19654;DHT22;9975;48.046;7.804;2023-01-24T02:56:30;3.00;99.90
19654;DHT22;9975;48.046;7.804;2023-01-24T02:59:14;3.00;99.90
19654;DHT22;9975;48.046;7.804;2023-01-24T03:01:40;3.00;99.90
19654;DHT22;9975;48.046;7.804;2023-01-24T03:04:06;3.00;99.90
19654;DHT22;9975;48.046;7.804;2023-01-24T03:06:31;3.00;99.90
19654;DHT22;9975;48.046;7.804;2023-01-24T03:08:57;3.00;99.90
19654;DHT22;9975;48.046;7.804;2023-01-24T03:11:22;3.00;99.90
19654;DHT22;9975;48.046;7.804;2023-01-24T03:13:48;3.00;99.90
19654;DHT22;9975;48.046;7.804;2023-01-24T03:16:32;3.00;99.90
19654;DHT22;9975;48.046;7.804;2023-01-24T03:19:16;3.00;99.90
19654;DHT22;9975;48.046;7.804;2023-01-24T03:22:00;3.00;99.90
19654;DHT22;9975;48.046;7.804;2023-01-24T03:24:44;3.10;99.90
19654;DHT22;9975;48.046;7.804;2023-01-24T03:27:28;3.00;99.90
19654;DHT22;9975;48.046;7.804;2023-01-24T03:30:12;2.80;99.90
19654;DHT22;9975;48.046;7.804;2023-01-24T03:33:01;3.00;99.90
19654;DHT22;9975;48.046;7.804;2023-01-24T03:35:49;3.20;99.90
19654;DHT22;9975;48.046;7.804;2023-01-24T03:38:22;3.00;99.90
19654;DHT22;9975;48.046;7.804;2023-01-24T03:41:07;3.00;99.90
19654;DHT22;9975;48.046;7.804;2023-01-24T03:43:32;3.00;99.90
19654;DHT22;9975;48.046;7.804;2023-01-24T03:45:58;3.00;99.90
19654;DHT22;9975;48.046;7.804;2023-01-24T03:48:24;3.10;99.90
19654;DHT22;9975;48.046;7.804;2023-01-24T03:50:52;3.10;99.90
19654;DHT22;9975;48.046;7.804;2023-01-24T03:53:37;3.10;99.90
19654;DHT22;9975;48.046;7.804;2023-01-24T03:56:03;3.00;99.90
19654;DHT22;9975;48.046;7.804;2023-01-24T03:58:30;3.00;99.90
19654;DHT22;9975;48.046;7.804;2023-01-24T04:00:56;3.00;99.90
19654;DHT22;9975;48.046;7.804;2023-01-24T04:03:22;3.00;99.90
19654;DHT22;9975;48.046;7.804;2023-01-24T04:05:48;3.00;99.90
19654;DHT22;9975;48.046;7.804;2023-01-24T04:08:15;2.90;99.90
19654;DHT22;9975;48.046;7.804;2023-01-24T04:10:41;2.90;99.90
19654;DHT22;9975;48.046;7.804;2023-01-24T04:13:07;3.00;99.90
19654;DHT22;9975;48.046;7.804;2023-01-24T04:15:33;3.00;99.90
19654;DHT22;9975;48.046;7.804;2023-01-24T04:18:01;2.90;99.90
19654;DHT22;9975;48.046;7.804;2023-01-24T04:20:29;2.80;99.90
19654;DHT22;9975;48.046;7.804;2023-01-24T04:22:55;2.90;99.90
19654;DHT22;9975;48.046;7.804;2023-01-24T04:25:21;2.80;99.90
19654;DHT22;9975;48.046;7.804;2023-01-24T04:27:46;2.80;99.90
19654;DHT22;9975;48.046;7.804;2023-01-24T04:30:14;2.80;99.90
19654;DHT22;9975;48.046;7.804;2023-01-24T04:32:41;2.80;99.90
19654;DHT22;9975;48.046;7.804;2023-01-24T04:35:07;2.80;99.90
19654;DHT22;9975;48.046;7.804;2023-01-24T04:37:33;2.80;99.90
19654;DHT22;9975;48.046;7.804;2023-01-24T04:39:58;2.70;99.90
19654;DHT22;9975;48.046;7.804;2023-01-24T04:42:26;2.80;99.90
19654;DHT22;9975;48.046;7.804;2023-01-24T04:44:51;2.90;99.90
19654;DHT22;9975;48.046;7.804;2023-01-24T04:47:17;2.90;99.90
19654;DHT22;9975;48.046;7.804;2023-01-24T04:49:43;2.80;99.90
19654;DHT22;9975;48.046;7.804;2023-01-24T04:52:12;2.70;99.90
19654;DHT22;9975;48.046;7.804;2023-01-24T04:54:41;2.70;99.90
19654;DHT22;9975;48.046;7.804;2023-01-24T04:57:07;2.70;99.90
19654;DHT22;9975;48.046;7.804;2023-01-24T04:59:33;2.80;99.90
19654;DHT22;9975;48.046;7.804;2023-01-24T05:01:58;2.60;99.90
19654;DHT22;9975;48.046;7.804;2023-01-24T05:04:24;2.60;99.90
19654;DHT22;9975;48.046;7.804;2023-01-24T05:06:50;2.80;99.90
19654;DHT22;9975;48.046;7.804;2023-01-24T05:09:15;2.70;99.90
19654;DHT22;9975;48.046;7.804;2023-01-24T05:11:41;2.80;99.90
19654;DHT22;9975;48.046;7.804;2023-01-24T05:14:08;2.80;99.90
19654;DHT22;9975;48.046;7.804;2023-01-24T05:16:35;2.70;99.90
19654;DHT22;9975;48.046;7.804;2023-01-24T05:21:26;2.80;99.90
19654;DHT22;9975;48.046;7.804;2023-01-24T05:23:53;2.80;99.90
19654;DHT22;9975;48.046;7.804;2023-01-24T05:26:23;2.60;99.90
19654;DHT22;9975;48.046;7.804;2023-01-24T05:28:50;2.80;99.90
19654;DHT22;9975;48.046;7.804;2023-01-24T05:31:16;2.80;99.90
19654;DHT22;9975;48.046;7.804;2023-01-24T05:33:42;2.70;99.90
19654;DHT22;9975;48.046;7.804;2023-01-24T05:36:13;2.70;99.90
19654;DHT22;9975;48.046;7.804;2023-01-24T05:38:41;4.50;99.90
19654;DHT22;9975;48.046;7.804;2023-01-24T05:41:09;2.80;99.90
19654;DHT22;9975;48.046;7.804;2023-01-24T05:43:36;2.80;99.90
19654;DHT22;9975;48.046;7.804;2023-01-24T05:46:07;2.90;99.90
19654;DHT22;9975;48.046;7.804;2023-01-24T05:48:34;2.90;99.90
19654;DHT22;9975;48.046;7.804;2023-01-24T05:51:05;2.80;99.90
19654;DHT22;9975;48.046;7.804;2023-01-24T05:53:31;2.80;99.90
19654;DHT22;9975;48.046;7.804;2023-01-24T05:55:59;2.80;99.90
19654;DHT22;9975;48.046;7.804;2023-01-24T05:58:27;2.90;99.90
19654;DHT22;9975;48.046;7.804;2023-01-24T06:00:53;2.80;99.90
19654;DHT22;9975;48.046;7.804;2023-01-24T06:03:19;3.20;99.90
19654;DHT22;9975;48.046;7.804;2023-01-24T06:05:51;2.90;99.90
19654;DHT22;9975;48.046;7.804;2023-01-24T06:08:18;2.90;99.90
19654;DHT22;9975;48.046;7.804;2023-01-24T06:10:43;2.90;99.90
19654;DHT22;9975;48.046;7.804;2023-01-24T06:13:09;2.90;99.90
19654;DHT22;9975;48.046;7.804;2023-01-24T06:15:35;2.90;99.90
19654;DHT22;9975;48.046;7.804;2023-01-24T06:18:03;2.90;99.90
19654;DHT22;9975;48.046;7.804;2023-01-24T06:23:25;3.00;99.90
19654;DHT22;9975;48.046;7.804;2023-01-24T06:25:52;2.90;99.90
19654;DHT22;9975;48.046;7.804;2023-01-24T06:28:18;3.00;99.90
19654;DHT22;9975;48.046;7.804;2023-01-24T06:30:53;3.00;99.90
19654;DHT22;9975;48.046;7.804;2023-01-24T06:38:49;2.90;99.90
19654;DHT22;9975;48.046;7.804;2023-01-24T06:41:16;2.90;99.90
19654;DHT22;9975;48.046;7.804;2023-01-24T06:43:43;2.90;99.90
19654;DHT22;9975;48.046;7.804;2023-01-24T06:46:10;2.90;99.90
19654;DHT22;9975;48.046;7.804;2023-01-24T06:48:36;2.90;99.90
19654;DHT22;9975;48.046;7.804;2023-01-24T06:51:02;2.90;99.90
19654;DHT22;9975;48.046;7.804;2023-01-24T06:53:27;2.80;99.90
19654;DHT22;9975;48.046;7.804;2023-01-24T06:55:53;2.90;99.90
19654;DHT22;9975;48.046;7.804;2023-01-24T06:58:18;3.00;99.90
19654;DHT22;9975;48.046;7.804;2023-01-24T07:00:44;2.80;99.90
19654;DHT22;9975;48.046;7.804;2023-01-24T07:03:12;2.90;99.90
19654;DHT22;9975;48.046;7.804;2023-01-24T07:05:39;2.90;99.90
19654;DHT22;9975;48.046;7.804;2023-01-24T07:08:05;2.80;99.90
19654;DHT22;9975;48.046;7.804;2023-01-24T07:10:31;3.00;99.90
19654;DHT22;9975;48.046;7.804;2023-01-24T07:12:57;3.00;99.90
19654;DHT22;9975;48.046;7.804;2023-01-24T07:15:24;2.90;99.90
19654;DHT22;9975;48.046;7.804;2023-01-24T07:20:16;3.00;99.90
19654;DHT22;9975;48.046;7.804;2023-01-24T07:22:43;3.00;99.90
19654;DHT22;9975;48.046;7.804;2023-01-24T07:25:13;3.00;99.90
19654;DHT22;9975;48.046;7.804;2023-01-24T07:27:40;3.00;99.90
19654;DHT22;9975;48.046;7.804;2023-01-24T07:30:07;2.90;99.90
19654;DHT22;9975;48.046;7.804;2023-01-24T07:32:32;2.90;99.90
19654;DHT22;9975;48.046;7.804;2023-01-24T07:34:58;3.00;99.90
19654;DHT22;9975;48.046;7.804;2023-01-24T07:37:23;3.10;99.90
19654;DHT22;9975;48.046;7.804;2023-01-24T07:39:49;3.00;99.90
19654;DHT22;9975;48.046;7.804;2023-01-24T07:44:41;3.10;99.90
19654;DHT22;9975;48.046;7.804;2023-01-24T07:47:06;3.10;99.90
19654;DHT22;9975;48.046;7.804;2023-01-24T07:49:32;3.20;99.90
19654;DHT22;9975;48.046;7.804;2023-01-24T07:51:57;3.00;99.90
19654;DHT22;9975;48.046;7.804;2023-01-24T07:54:23;3.00;99.90
19654;DHT22;9975;48.046;7.804;2023-01-24T07:56:48;3.10;99.90
19654;DHT22;9975;48.046;7.804;2023-01-24T07:59:14;3.10;99.90
19654;DHT22;9975;48.046;7.804;2023-01-24T08:01:40;3.20;99.90
19654;DHT22;9975;48.046;7.804;2023-01-24T08:04:06;3.20;99.90
19654;DHT22;9975;48.046;7.804;2023-01-24T08:06:31;3.40;99.90
19654;DHT22;9975;48.046;7.804;2023-01-24T08:08:57;3.30;99.90
19654;DHT22;9975;48.046;7.804;2023-01-24T08:11:22;3.40;99.90
19654;DHT22;9975;48.046;7.804;2023-01-24T08:13:48;3.20;99.90
19654;DHT22;9975;48.046;7.804;2023-01-24T08:16:15;3.30;99.90
19654;DHT22;9975;48.046;7.804;2023-01-24T08:18:41;3.30;99.90
19654;DHT22;9975;48.046;7.804;2023-01-24T08:21:09;3.40;99.90
19654;DHT22;9975;48.046;7.804;2023-01-24T08:23:35;3.40;99.90
19654;DHT22;9975;48.046;7.804;2023-01-24T08:26:01;3.40;99.90
19654;DHT22;9975;48.046;7.804;2023-01-24T08:28:27;3.50;99.90
19654;DHT22;9975;48.046;7.804;2023-01-24T08:30:57;3.50;99.90
19654;DHT22;9975;48.046;7.804;2023-01-24T08:33:22;3.50;99.90
19654;DHT22;9975;48.046;7.804;2023-01-24T08:35:48;3.50;99.90
19654;DHT22;9975;48.046;7.804;2023-01-24T08:38:15;3.50;99.90
19654;DHT22;9975;48.046;7.804;2023-01-24T08:40:41;3.50;99.90
19654;DHT22;9975;48.046;7.804;2023-01-24T08:43:07;3.50;99.90
19654;DHT22;9975;48.046;7.804;2023-01-24T08:45:33;3.50;99.90
19654;DHT22;9975;48.046;7.804;2023-01-24T08:47:59;3.60;99.90
19654;DHT22;9975;48.046;7.804;2023-01-24T08:50:25;3.60;99.90
19654;DHT22;9975;48.046;7.804;2023-01-24T08:52:57;3.60;99.90
19654;DHT22;9975;48.046;7.804;2023-01-24T08:55:23;3.60;99.90
19654;DHT22;9975;48.046;7.804;2023-01-24T08:57:49;3.60;99.90
19654;DHT22;9975;48.046;7.804;2023-01-24T09:00:15;3.70;99.90
19654;DHT22;9975;48.046;7.804;2023-01-24T09:05:08;3.80;99.90
19654;DHT22;9975;48.046;7.804;2023-01-24T09:07:34;3.90;99.90
19654;DHT22;9975;48.046;7.804;2023-01-24T09:10:06;3.90;99.90
19654;DHT22;9975;48.046;7.804;2023-01-24T09:12:32;3.80;99.90
19654;DHT22;9975;48.046;7.804;2023-01-24T09:14:58;3.90;99.90
19654;DHT22;9975;48.046;7.804;2023-01-24T09:17:23;3.80;99.90
19654;DHT22;9975;48.046;7.804;2023-01-24T09:19:50;3.90;99.90
19654;DHT22;9975;48.046;7.804;2023-01-24T09:22:16;4.00;99.90
19654;DHT22;9975;48.046;7.804;2023-01-24T09:24:50;4.00;99.90
19654;DHT22;9975;48.046;7.804;2023-01-24T09:27:16;4.00;99.90
19654;DHT22;9975;48.046;7.804;2023-01-24T09:29:41;3.90;99.90
19654;DHT22;9975;48.046;7.804;2023-01-24T09:34:33;3.90;99.90
19654;DHT22;9975;48.046;7.804;2023-01-24T09:36:59;4.10;99.90
19654;DHT22;9975;48.046;7.804;2023-01-24T09:39:24;4.20;99.90
19654;DHT22;9975;48.046;7.804;2023-01-24T09:41:56;4.30;99.90
19654;DHT22;9975;48.046;7.804;2023-01-24T09:44:51;4.10;99.90
19654;DHT22;9975;48.046;7.804;2023-01-24T09:50:04;4.30;99.90
19654;DHT22;9975;48.046;7.804;2023-01-24T09:52:39;4.50;99.90
19654;DHT22;9975;48.046;7.804;2023-01-24T10:00:16;4.50;99.90
19654;DHT22;9975;48.046;7.804;2023-01-24T10:02:43;4.70;99.90
19654;DHT22;9975;48.046;7.804;2023-01-24T10:05:16;4.60;99.90
19654;DHT22;9975;48.046;7.804;2023-01-24T10:10:48;4.90;99.90
19654;DHT22;9975;48.046;7.804;2023-01-24T10:21:52;5.10;99.90
19654;DHT22;9975;48.046;7.804;2023-01-24T10:24:22;5.20;99.90
19654;DHT22;9975;48.046;7.804;2023-01-24T10:26:51;5.20;99.90
19654;DHT22;9975;48.046;7.804;2023-01-24T10:29:22;5.30;99.90
19654;DHT22;9975;48.046;7.804;2023-01-24T10:31:57;5.40;99.90
19654;DHT22;9975;48.046;7.804;2023-01-24T10:34:47;5.80;99.90
19654;DHT22;9975;48.046;7.804;2023-01-24T10:37:23;5.40;99.90
19654;DHT22;9975;48.046;7.804;2023-01-24T10:39:49;5.40;99.90
19654;DHT22;9975;48.046;7.804;2023-01-24T10:42:25;5.50;99.90
19654;DHT22;9975;48.046;7.804;2023-01-24T10:44:54;5.50;99.90
19654;DHT22;9975;48.046;7.804;2023-01-24T10:47:58;5.60;99.90
19654;DHT22;9975;48.046;7.804;2023-01-24T10:50:40;5.70;99.90
19654;DHT22;9975;48.046;7.804;2023-01-24T10:58:33;5.80;99.90
19654;DHT22;9975;48.046;7.804;2023-01-24T11:01:06;5.90;99.90
19654;DHT22;9975;48.046;7.804;2023-01-24T11:03:36;5.80;99.90
19654;DHT22;9975;48.046;7.804;2023-01-24T11:06:03;5.90;99.90
19654;DHT22;9975;48.046;7.804;2023-01-24T11:08:34;5.90;99.90
19654;DHT22;9975;48.046;7.804;2023-01-24T11:11:01;6.00;99.90
19654;DHT22;9975;48.046;7.804;2023-01-24T11:13:36;6.00;99.90
19654;DHT22;9975;48.046;7.804;2023-01-24T11:18:29;6.10;99.90
19654;DHT22;9975;48.046;7.804;2023-01-24T11:21:24;6.10;99.90
19654;DHT22;9975;48.046;7.804;2023-01-24T11:26:28;5.90;99.90
19654;DHT22;9975;48.046;7.804;2023-01-24T11:29:02;6.00;99.90
19654;DHT22;9975;48.046;7.804;2023-01-24T11:31:39;6.00;99.90
19654;DHT22;9975;48.046;7.804;2023-01-24T11:39:11;6.10;99.90
19654;DHT22;9975;48.046;7.804;2023-01-24T11:41:54;6.20;99.90
19654;DHT22;9975;48.046;7.804;2023-01-24T11:47:18;6.30;99.90
19654;DHT22;9975;48.046;7.804;2023-01-24T11:50:06;6.30;99.90
19654;DHT22;9975;48.046;7.804;2023-01-24T11:58:37;6.50;99.90
19654;DHT22;9975;48.046;7.804;2023-01-24T12:09:49;6.60;99.90
19654;DHT22;9975;48.046;7.804;2023-01-24T12:12:37;6.70;99.90
19654;DHT22;9975;48.046;7.804;2023-01-24T12:17:49;6.60;99.90
19654;DHT22;9975;48.046;7.804;2023-01-24T12:20:42;6.40;99.90
19654;DHT22;9975;48.046;7.804;2023-01-24T12:26:31;6.40;99.90
19654;DHT22;9975;48.046;7.804;2023-01-24T12:29:02;6.30;99.90
19654;DHT22;9975;48.046;7.804;2023-01-24T12:31:50;6.40;99.90
19654;DHT22;9975;48.046;7.804;2023-01-24T12:45:09;6.10;99.90
19654;DHT22;9975;48.046;7.804;2023-01-24T12:47:53;6.10;99.90
19654;DHT22;9975;48.046;7.804;2023-01-24T12:56:09;6.00;99.90
19654;DHT22;9975;48.046;7.804;2023-01-24T12:58:40;6.10;99.90
19654;DHT22;9975;48.046;7.804;2023-01-24T13:11:58;6.00;99.90
19654;DHT22;9975;48.046;7.804;2023-01-24T13:14:32;6.20;99.90
19654;DHT22;9975;48.046;7.804;2023-01-24T13:20:31;6.10;99.90
19654;DHT22;9975;48.046;7.804;2023-01-24T13:23:11;6.10;99.90
19654;DHT22;9975;48.046;7.804;2023-01-24T13:28:51;6.10;99.90
19654;DHT22;9975;48.046;7.804;2023-01-24T13:33:58;6.10;99.90
19654;DHT22;9975;48.046;7.804;2023-01-24T13:36:30;6.10;99.90
19654;DHT22;9975;48.046;7.804;2023-01-24T13:51:49;6.20;99.90
19654;DHT22;9975;48.046;7.804;2023-01-24T13:59:31;5.90;99.90
19654;DHT22;9975;48.046;7.804;2023-01-24T14:01:58;5.90;99.90
19654;DHT22;9975;48.046;7.804;2023-01-24T14:04:56;6.10;99.90
19654;DHT22;9975;48.046;7.804;2023-01-24T14:07:29;6.00;99.90
19654;DHT22;9975;48.046;7.804;2023-01-24T14:09:59;6.40;99.90
19654;DHT22;9975;48.046;7.804;2023-01-24T14:12:26;6.10;99.90
19654;DHT22;9975;48.046;7.804;2023-01-24T14:15:36;6.00;99.90
19654;DHT22;9975;48.046;7.804;2023-01-24T14:20:42;5.80;99.90
19654;DHT22;9975;48.046;7.804;2023-01-24T14:23:21;5.90;99.90
19654;DHT22;9975;48.046;7.804;2023-01-24T14:25:57;5.80;99.90
19654;DHT22;9975;48.046;7.804;2023-01-24T14:28:38;5.80;99.90
19654;DHT22;9975;48.046;7.804;2023-01-24T14:31:26;5.80;99.90
19654;DHT22;9975;48.046;7.804;2023-01-24T14:34:20;5.80;99.90
19654;DHT22;9975;48.046;7.804;2023-01-24T14:36:58;4.70;99.90
19654;DHT22;9975;48.046;7.804;2023-01-24T14:39:26;5.60;99.90
19654;DHT22;9975;48.046;7.804;2023-01-24T14:41:57;5.70;99.90
19654;DHT22;9975;48.046;7.804;2023-01-24T14:47:03;5.50;99.90
19654;DHT22;9975;48.046;7.804;2023-01-24T14:49:43;5.40;99.90
19654;DHT22;9975;48.046;7.804;2023-01-24T14:52:18;5.50;99.90
19654;DHT22;9975;48.046;7.804;2023-01-24T14:54:46;5.50;99.90
19654;DHT22;9975;48.046;7.804;2023-01-24T14:57:22;5.40;99.90
19654;DHT22;9975;48.046;7.804;2023-01-24T15:00:18;5.50;99.90
19654;DHT22;9975;48.046;7.804;2023-01-24T15:03:01;5.50;99.90
19654;DHT22;9975;48.046;7.804;2023-01-24T15:05:37;5.40;99.90
19654;DHT22;9975;48.046;7.804;2023-01-24T15:08:05;5.40;99.90
19654;DHT22;9975;48.046;7.804;2023-01-24T15:10:35;5.50;99.90
19654;DHT22;9975;48.046;7.804;2023-01-24T15:13:03;5.40;99.90
19654;DHT22;9975;48.046;7.804;2023-01-24T15:15:30;5.50;99.90
19654;DHT22;9975;48.046;7.804;2023-01-24T15:18:16;5.40;99.90
19654;DHT22;9975;48.046;7.804;2023-01-24T15:20:47;5.40;99.90
19654;DHT22;9975;48.046;7.804;2023-01-24T15:23:19;5.30;99.90
19654;DHT22;9975;48.046;7.804;2023-01-24T15:28:30;5.30;99.90
19654;DHT22;9975;48.046;7.804;2023-01-24T15:31:00;5.30;99.90
19654;DHT22;9975;48.046;7.804;2023-01-24T15:33:40;5.30;99.90
19654;DHT22;9975;48.046;7.804;2023-01-24T15:39:00;5.20;99.90
19654;DHT22;9975;48.046;7.804;2023-01-24T15:41:27;5.20;99.90
19654;DHT22;9975;48.046;7.804;2023-01-24T15:44:14;5.20;99.90
19654;DHT22;9975;48.046;7.804;2023-01-24T15:46:43;5.20;99.90
19654;DHT22;9975;48.046;7.804;2023-01-24T15:49:31;5.10;99.90
19654;DHT22;9975;48.046;7.804;2023-01-24T15:52:18;5.10;99.90
19654;DHT22;9975;48.046;7.804;2023-01-24T15:54:52;5.10;99.90
19654;DHT22;9975;48.046;7.804;2023-01-24T15:57:25;5.20;99.90
19654;DHT22;9975;48.046;7.804;2023-01-24T16:02:37;5.20;99.90
19654;DHT22;9975;48.046;7.804;2023-01-24T16:05:11;5.20;99.90
19654;DHT22;9975;48.046;7.804;2023-01-24T16:07:37;5.30;99.90
19654;DHT22;9975;48.046;7.804;2023-01-24T16:12:32;5.20;99.90
19654;DHT22;9975;48.046;7.804;2023-01-24T16:17:25;5.20;99.90
19654;DHT22;9975;48.046;7.804;2023-01-24T16:19:51;5.30;99.90
19654;DHT22;9975;48.046;7.804;2023-01-24T16:24:43;5.10;99.90
19654;DHT22;9975;48.046;7.804;2023-01-24T16:27:17;7.00;99.90
19654;DHT22;9975;48.046;7.804;2023-01-24T16:32:20;5.10;99.90
19654;DHT22;9975;48.046;7.804;2023-01-24T16:34:47;5.30;99.90
19654;DHT22;9975;48.046;7.804;2023-01-24T16:42:12;5.00;99.90
19654;DHT22;9975;48.046;7.804;2023-01-24T16:44:39;4.80;99.90
19654;DHT22;9975;48.046;7.804;2023-01-24T16:47:04;4.80;99.90
19654;DHT22;9975;48.046;7.804;2023-01-24T16:49:30;5.00;99.90
19654;DHT22;9975;48.046;7.804;2023-01-24T16:51:55;5.00;99.90
19654;DHT22;9975;48.046;7.804;2023-01-24T16:56:48;4.90;99.90
19654;DHT22;9975;48.046;7.804;2023-01-24T17:01:40;4.90;99.90
19654;DHT22;9975;48.046;7.804;2023-01-24T17:06:32;4.90;99.90
19654;DHT22;9975;48.046;7.804;2023-01-24T17:11:23;5.00;99.90
19654;DHT22;9975;48.046;7.804;2023-01-24T17:13:49;4.80;99.90
19654;DHT22;9975;48.046;7.804;2023-01-24T17:16:15;5.00;99.90
19654;DHT22;9975;48.046;7.804;2023-01-24T17:21:10;4.80;99.90
19654;DHT22;9975;48.046;7.804;2023-01-24T17:23:37;4.80;99.90
19654;DHT22;9975;48.046;7.804;2023-01-24T17:26:08;4.60;99.90
19654;DHT22;9975;48.046;7.804;2023-01-24T17:28:35;4.80;99.90
19654;DHT22;9975;48.046;7.804;2023-01-24T17:31:10;4.70;99.90
19654;DHT22;9975;48.046;7.804;2023-01-24T17:33:36;4.70;99.90
19654;DHT22;9975;48.046;7.804;2023-01-24T17:36:03;4.40;99.90
19654;DHT22;9975;48.046;7.804;2023-01-24T17:38:29;4.40;99.90
19654;DHT22;9975;48.046;7.804;2023-01-24T17:41:22;4.30;99.90
19654;DHT22;9975;48.046;7.804;2023-01-24T17:43:49;4.30;99.90
19654;DHT22;9975;48.046;7.804;2023-01-24T17:46:15;4.30;99.90
19654;DHT22;9975;48.046;7.804;2023-01-24T17:48:49;4.40;99.90
19654;DHT22;9975;48.046;7.804;2023-01-24T17:51:16;4.40;99.90
19654;DHT22;9975;48.046;7.804;2023-01-24T17:53:43;4.30;99.90
19654;DHT22;9975;48.046;7.804;2023-01-24T17:56:10;4.30;99.90
19654;DHT22;9975;48.046;7.804;2023-01-24T17:58:37;4.40;99.90
19654;DHT22;9975;48.046;7.804;2023-01-24T18:01:03;4.20;99.90
19654;DHT22;9975;48.046;7.804;2023-01-24T18:03:30;4.30;99.90
19654;DHT22;9975;48.046;7.804;2023-01-24T18:05:55;4.30;99.90
19654;DHT22;9975;48.046;7.804;2023-01-24T18:08:21;4.30;99.90
19654;DHT22;9975;48.046;7.804;2023-01-24T18:10:51;4.20;99.90
19654;DHT22;9975;48.046;7.804;2023-01-24T18:13:17;4.20;99.90
19654;DHT22;9975;48.046;7.804;2023-01-24T18:18:09;4.10;99.90
19654;DHT22;9975;48.046;7.804;2023-01-24T18:20:38;4.20;99.90
19654;DHT22;9975;48.046;7.804;2023-01-24T18:23:04;4.20;99.90
19654;DHT22;9975;48.046;7.804;2023-01-24T18:25:31;4.20;99.90
19654;DHT22;9975;48.046;7.804;2023-01-24T18:27:58;4.20;99.90
19654;DHT22;9975;48.046;7.804;2023-01-24T18:30:24;4.30;99.90
19654;DHT22;9975;48.046;7.804;2023-01-24T18:32:50;4.30;99.90
19654;DHT22;9975;48.046;7.804;2023-01-24T18:35:15;4.30;99.90
19654;DHT22;9975;48.046;7.804;2023-01-24T18:40:08;4.30;99.90
19654;DHT22;9975;48.046;7.804;2023-01-24T18:42:35;4.30;99.90
19654;DHT22;9975;48.046;7.804;2023-01-24T18:45:01;4.30;99.90
19654;DHT22;9975;48.046;7.804;2023-01-24T18:47:27;4.10;99.90
19654;DHT22;9975;48.046;7.804;2023-01-24T18:49:53;4.10;99.90
19654;DHT22;9975;48.046;7.804;2023-01-24T18:52:19;4.00;99.90
19654;DHT22;9975;48.046;7.804;2023-01-24T18:54:44;3.90;99.90
19654;DHT22;9975;48.046;7.804;2023-01-24T19:02:03;3.60;99.90
19654;DHT22;9975;48.046;7.804;2023-01-24T19:04:29;3.60;99.90
19654;DHT22;9975;48.046;7.804;2023-01-24T19:06:56;3.60;99.90
19654;DHT22;9975;48.046;7.804;2023-01-24T19:09:22;3.60;99.90
19654;DHT22;9975;48.046;7.804;2023-01-24T19:11:47;3.70;99.90
19654;DHT22;9975;48.046;7.804;2023-01-24T19:14:13;3.70;99.90
19654;DHT22;9975;48.046;7.804;2023-01-24T19:16:42;3.60;99.90
19654;DHT22;9975;48.046;7.804;2023-01-24T19:19:16;3.50;99.90
19654;DHT22;9975;48.046;7.804;2023-01-24T19:24:11;3.40;99.90
19654;DHT22;9975;48.046;7.804;2023-01-24T19:26:37;3.50;99.90
19654;DHT22;9975;48.046;7.804;2023-01-24T19:29:02;3.60;99.90
19654;DHT22;9975;48.046;7.804;2023-01-24T19:31:28;3.60;99.90
19654;DHT22;9975;48.046;7.804;2023-01-24T19:33:55;3.60;99.90
19654;DHT22;9975;48.046;7.804;2023-01-24T19:36:21;3.60;99.90
19654;DHT22;9975;48.046;7.804;2023-01-24T19:38:55;3.50;99.90
19654;DHT22;9975;48.046;7.804;2023-01-24T19:41:22;3.50;99.90
19654;DHT22;9975;48.046;7.804;2023-01-24T19:43:48;3.60;99.90
19654;DHT22;9975;48.046;7.804;2023-01-24T19:46:14;3.40;99.90
19654;DHT22;9975;48.046;7.804;2023-01-24T19:48:40;3.40;99.90
19654;DHT22;9975;48.046;7.804;2023-01-24T19:51:08;3.40;99.90
19654;DHT22;9975;48.046;7.804;2023-01-24T19:56:02;3.40;99.90
19654;DHT22;9975;48.046;7.804;2023-01-24T19:58:28;3.30;99.90
19654;DHT22;9975;48.046;7.804;2023-01-24T20:00:54;3.30;99.90
19654;DHT22;9975;48.046;7.804;2023-01-24T20:03:20;3.30;99.90
19654;DHT22;9975;48.046;7.804;2023-01-24T20:05:45;3.30;99.90
19654;DHT22;9975;48.046;7.804;2023-01-24T20:08:12;3.20;99.90
19654;DHT22;9975;48.046;7.804;2023-01-24T20:10:38;3.30;99.90
19654;DHT22;9975;48.046;7.804;2023-01-24T20:13:04;3.20;99.90
19654;DHT22;9975;48.046;7.804;2023-01-24T20:15:31;3.20;99.90
19654;DHT22;9975;48.046;7.804;2023-01-24T20:17:56;3.10;99.90
19654;DHT22;9975;48.046;7.804;2023-01-24T20:20:23;3.30;99.90
19654;DHT22;9975;48.046;7.804;2023-01-24T20:22:54;3.20;99.90
19654;DHT22;9975;48.046;7.804;2023-01-24T20:25:19;3.10;99.90
19654;DHT22;9975;48.046;7.804;2023-01-24T20:27:45;3.10;99.90
19654;DHT22;9975;48.046;7.804;2023-01-24T20:30:12;3.00;99.90
19654;DHT22;9975;48.046;7.804;2023-01-24T20:32:37;3.10;99.90
19654;DHT22;9975;48.046;7.804;2023-01-24T20:35:03;3.10;99.90
19654;DHT22;9975;48.046;7.804;2023-01-24T20:37:30;3.00;99.90
19654;DHT22;9975;48.046;7.804;2023-01-24T20:39:55;3.10;99.90
19654;DHT22;9975;48.046;7.804;2023-01-24T20:42:21;3.00;99.90
19654;DHT22;9975;48.046;7.804;2023-01-24T20:44:47;3.00;99.90
19654;DHT22;9975;48.046;7.804;2023-01-24T20:49:38;3.10;99.90
19654;DHT22;9975;48.046;7.804;2023-01-24T20:52:05;3.10;99.90
19654;DHT22;9975;48.046;7.804;2023-01-24T20:54:30;3.30;99.90
19654;DHT22;9975;48.046;7.804;2023-01-24T20:56:56;3.20;99.90
19654;DHT22;9975;48.046;7.804;2023-01-24T20:59:25;3.30;99.90
19654;DHT22;9975;48.046;7.804;2023-01-24T21:01:51;3.30;99.90
19654;DHT22;9975;48.046;7.804;2023-01-24T21:04:17;3.30;99.90
19654;DHT22;9975;48.046;7.804;2023-01-24T21:06:42;3.20;99.90
19654;DHT22;9975;48.046;7.804;2023-01-24T21:09:11;3.30;99.90
19654;DHT22;9975;48.046;7.804;2023-01-24T21:11:37;3.20;99.90
19654;DHT22;9975;48.046;7.804;2023-01-24T21:14:05;3.20;99.90
19654;DHT22;9975;48.046;7.804;2023-01-24T21:16:32;3.10;99.90
19654;DHT22;9975;48.046;7.804;2023-01-24T21:19:01;3.20;99.90
19654;DHT22;9975;48.046;7.804;2023-01-24T21:21:29;3.20;99.90
19654;DHT22;9975;48.046;7.804;2023-01-24T21:23:56;3.20;99.90
19654;DHT22;9975;48.046;7.804;2023-01-24T21:26:21;3.20;99.90
19654;DHT22;9975;48.046;7.804;2023-01-24T21:28:48;3.20;99.90
19654;DHT22;9975;48.046;7.804;2023-01-24T21:31:18;3.20;99.90
19654;DHT22;9975;48.046;7.804;2023-01-24T21:33:45;3.20;99.90